Time;durP1;ratioP1;P1;durP2;ratioP2;P2;SDS_P1;SDS_P2;PMS_P1;PMS_P2;Temp;Humidity;BMP_temperature;BMP_pressure;BME280_temperature;BME280_humidity;BME280_pressure;Samples;Min_cycle;Max_cycle;Signal;HPM_P1;HPM_P2
2021/03/27 00:00:24;;;;;;;13.73;7.30;;;11.10;99.70;;;;;;5031334;28;20480;-68
2021/03/27 00:02:55;;;;;;;16.73;8.47;;;11.10;99.70;;;;;;5030800;28;20472;-68
2021/03/27 00:05:25;;;;;;;14.50;8.10;;;11.10;99.70;;;;;;5030800;28;20822;-68
2021/03/27 00:08:03;;;;;;;17.53;8.20;;;11.10;99.70;;;;;;5030898;28;20965;-69
2021/03/27 00:10:41;;;;;;;14.00;7.93;;;11.00;99.70;;;;;;5031344;28;20815;-68
2021/03/27 00:13:22;;;;;;;15.43;7.93;;;11.00;99.70;;;;;;5031113;28;20456;-68
2021/03/27 00:15:57;;;;;;;12.40;7.40;;;10.90;99.70;;;;;;5030726;28;20527;-68
2021/03/27 00:18:28;;;;;;;15.50;7.70;;;10.90;99.70;;;;;;5030602;28;20941;-68
2021/03/27 00:20:59;;;;;;;13.63;7.50;;;10.90;99.70;;;;;;5030909;28;20453;-68
2021/03/27 00:23:29;;;;;;;15.30;7.37;;;10.80;99.70;;;;;;5030630;28;20504;-67
2021/03/27 00:26:01;;;;;;;14.73;7.43;;;10.80;99.70;;;;;;5030483;28;20448;-68
2021/03/27 00:28:32;;;;;;;10.10;6.50;;;10.80;99.70;;;;;;5030529;28;20440;-68
2021/03/27 00:31:05;;;;;;;11.13;6.33;;;10.80;99.70;;;;;;5031038;28;20498;-68
2021/03/27 00:33:34;;;;;;;11.50;6.40;;;10.80;99.70;;;;;;5030880;28;20460;-68
2021/03/27 00:36:05;;;;;;;12.57;5.97;;;10.90;99.70;;;;;;5030543;28;20444;-68
2021/03/27 00:38:36;;;;;;;9.73;5.97;;;10.90;99.70;;;;;;5030242;28;20459;-68
2021/03/27 00:41:03;;;;;;;13.60;6.50;;;10.80;99.70;;;;;;5030659;28;20445;-68
2021/03/27 00:43:36;;;;;;;9.20;5.87;;;10.80;99.70;;;;;;5030441;28;20518;-68
2021/03/27 00:46:07;;;;;;;11.30;6.23;;;10.80;99.70;;;;;;5030072;28;20449;-67
2021/03/27 00:48:37;;;;;;;10.73;5.73;;;10.80;99.70;;;;;;5030212;28;20440;-68
2021/03/27 00:51:10;;;;;;;9.77;5.83;;;10.70;99.70;;;;;;5030456;28;20460;-67
2021/03/27 00:53:40;;;;;;;10.67;6.30;;;10.70;99.70;;;;;;5030396;28;20473;-68
2021/03/27 00:56:12;;;;;;;11.90;6.47;;;10.50;99.70;;;;;;5029993;28;20464;-68
2021/03/27 00:58:43;;;;;;;12.10;6.70;;;10.50;99.70;;;;;;5029828;28;20445;-68
2021/03/27 01:01:12;;;;;;;15.50;6.87;;;10.50;99.70;;;;;;5030333;28;20455;-68
2021/03/27 01:03:41;;;;;;;11.23;6.57;;;10.30;99.70;;;;;;5030185;28;20467;-68
2021/03/27 01:06:11;;;;;;;13.23;6.47;;;10.40;99.70;;;;;;5029544;28;20922;-68
2021/03/27 01:08:39;;;;;;;12.50;7.10;;;10.30;99.70;;;;;;5029744;28;20499;-68
2021/03/27 01:11:12;;;;;;;12.57;7.00;;;10.30;99.70;;;;;;5030032;28;20449;-68
2021/03/27 01:13:43;;;;;;;13.40;6.93;;;10.20;99.70;;;;;;5029162;28;20461;-68
2021/03/27 01:16:15;;;;;;;11.57;6.77;;;10.20;99.70;;;;;;5029470;28;20467;-68
2021/03/27 01:18:44;;;;;;;14.20;6.80;;;10.10;99.70;;;;;;5029601;28;20448;-68
2021/03/27 01:21:14;;;;;;;11.67;6.40;;;10.10;99.70;;;;;;5028836;28;20448;-68
2021/03/27 01:23:40;;;;;;;12.93;6.53;;;10.00;99.70;;;;;;5053090;22;20500;-70
2021/03/27 01:26:13;;;;;;;13.60;6.80;;;9.90;99.70;;;;;;5049176;28;20497;-70
2021/03/27 01:28:43;;;;;;;14.50;6.60;;;10.00;99.70;;;;;;5049434;28;20448;-71
2021/03/27 01:31:15;;;;;;;13.77;6.80;;;10.00;99.70;;;;;;5049824;28;20436;-71
2021/03/27 01:33:53;;;;;;;9.93;5.93;;;9.90;99.70;;;;;;5049643;28;20533;-71
2021/03/27 01:36:23;;;;;;;11.40;6.40;;;10.00;99.70;;;;;;5049333;28;20505;-71
2021/03/27 01:38:55;;;;;;;12.90;6.40;;;9.90;99.70;;;;;;5049375;28;20452;-71
2021/03/27 01:41:29;;;;;;;11.63;6.20;;;9.90;99.70;;;;;;5049747;28;20460;-71
2021/03/27 01:44:08;;;;;;;12.40;5.83;;;9.90;99.70;;;;;;5049414;28;20478;-72
2021/03/27 01:46:54;;;;;;;11.73;6.33;;;9.90;99.70;;;;;;5048922;28;20455;-71
2021/03/27 01:49:38;;;;;;;10.90;6.27;;;10.00;99.70;;;;;;5049230;28;20478;-71
2021/03/27 01:52:19;;;;;;;12.17;6.60;;;10.00;99.70;;;;;;5049405;28;20454;-72
2021/03/27 01:54:54;;;;;;;11.73;6.30;;;10.10;99.70;;;;;;5049151;28;20475;-71
2021/03/27 01:57:28;;;;;;;10.60;5.60;;;10.10;99.70;;;;;;5048991;28;20450;-72
2021/03/27 01:59:58;;;;;;;10.43;5.90;;;10.20;99.70;;;;;;5049328;28;20859;-71
2021/03/27 02:02:33;;;;;;;9.00;5.60;;;10.10;99.70;;;;;;5049114;28;20458;-72
2021/03/27 02:05:06;;;;;;;10.93;6.30;;;10.10;99.70;;;;;;5048606;28;20470;-71
2021/03/27 02:07:43;;;;;;;9.50;5.90;;;10.10;99.70;;;;;;5049130;28;21003;-71
2021/03/27 02:10:17;;;;;;;11.47;6.43;;;10.00;99.70;;;;;;5049289;28;20443;-70
2021/03/27 02:12:54;;;;;;;9.17;5.57;;;10.00;99.70;;;;;;5048980;28;20455;-71
2021/03/27 02:15:30;;;;;;;10.10;5.60;;;10.00;99.70;;;;;;5048668;28;20502;-71
2021/03/27 02:18:03;;;;;;;13.70;6.00;;;10.00;99.70;;;;;;5049036;28;21072;-71
2021/03/27 02:20:54;;;;;;;15.23;6.93;;;9.90;99.70;;;;;;5048911;28;20908;-71
2021/03/27 02:23:27;;;;;;;13.43;5.87;;;9.90;99.70;;;;;;5047926;28;21008;-71
2021/03/27 02:26:33;;;;;;;10.13;5.67;;;9.90;99.70;;;;;;5050969;28;20589;-71
2021/03/27 02:29:27;;;;;;;11.73;6.20;;;9.90;99.70;;;;;;4975075;28;20450;-71
2021/03/27 02:32:02;;;;;;;12.50;7.10;;;9.90;99.70;;;;;;5053164;28;20802;-70
2021/03/27 02:34:36;;;;;;;9.90;6.00;;;9.80;99.70;;;;;;5052977;28;20493;-71
2021/03/27 02:37:05;;;;;;;10.87;6.40;;;9.70;99.70;;;;;;5052279;28;20445;-70
2021/03/27 02:39:41;;;;;;;10.87;6.37;;;9.70;99.70;;;;;;5052973;28;20479;-71
2021/03/27 02:42:16;;;;;;;11.53;6.40;;;9.80;99.70;;;;;;5052784;28;20447;-71
2021/03/27 02:44:47;;;;;;;10.33;5.70;;;9.70;99.70;;;;;;5052836;28;20828;-69
2021/03/27 02:47:38;;;;;;;12.57;5.63;;;9.80;99.70;;;;;;5052288;28;20443;-71
2021/03/27 02:50:17;;;;;;;10.70;6.00;;;9.60;99.70;;;;;;5052940;28;20466;-69
2021/03/27 02:52:56;;;;;;;10.87;5.77;;;9.70;99.70;;;;;;5052732;28;20443;-70
2021/03/27 02:55:27;;;;;;;10.70;6.30;;;9.60;99.70;;;;;;5052456;28;20451;-73
2021/03/27 02:58:01;;;;;;;11.40;6.57;;;9.60;99.70;;;;;;5052864;28;20936;-71
2021/03/27 03:00:38;;;;;;;11.30;5.93;;;9.50;99.70;;;;;;5052441;28;20483;-71
2021/03/27 03:03:13;;;;;;;10.63;5.50;;;9.40;99.70;;;;;;5052479;28;20890;-70
2021/03/27 03:05:43;;;;;;;13.30;6.30;;;9.30;99.70;;;;;;5051864;28;20446;-71
2021/03/27 03:08:18;;;;;;;11.70;5.80;;;9.30;99.70;;;;;;5052034;28;20448;-71
2021/03/27 03:10:55;;;;;;;12.93;5.67;;;9.30;99.70;;;;;;5051942;28;20447;-70
2021/03/27 03:13:27;;;;;;;10.57;6.07;;;9.30;99.70;;;;;;5052115;28;20494;-70
2021/03/27 03:15:58;;;;;;;9.17;5.80;;;9.30;99.70;;;;;;5051696;28;20447;-71
2021/03/27 03:18:38;;;;;;;8.57;5.30;;;9.30;99.70;;;;;;5051665;28;20443;-71
2021/03/27 03:21:08;;;;;;;10.77;5.60;;;9.30;99.70;;;;;;5050895;28;20552;-69
2021/03/27 03:23:41;;;;;;;8.30;5.13;;;9.30;99.70;;;;;;5052064;28;20472;-71
2021/03/27 03:26:20;;;;;;;10.43;5.70;;;9.30;99.70;;;;;;5051314;28;20450;-71
2021/03/27 03:28:55;;;;;;;9.47;5.20;;;9.40;99.70;;;;;;5051610;28;20447;-71
2021/03/27 03:31:36;;;;;;;9.53;5.50;;;9.30;99.70;;;;;;5051799;28;20837;-71
2021/03/27 03:34:18;;;;;;;10.90;5.70;;;9.30;99.70;;;;;;5051632;28;20471;-71
2021/03/27 03:36:56;;;;;;;11.67;5.53;;;9.30;99.70;;;;;;5049894;28;20467;-71
2021/03/27 03:39:34;;;;;;;9.30;5.13;;;9.30;99.70;;;;;;5051709;28;20475;-71
2021/03/27 03:42:16;;;;;;;10.83;5.30;;;9.30;99.70;;;;;;5051695;28;20448;-70
2021/03/27 03:44:52;;;;;;;11.50;5.50;;;9.30;99.70;;;;;;5051492;28;20552;-72
2021/03/27 03:47:27;;;;;;;9.67;5.30;;;9.20;99.70;;;;;;5051283;28;20458;-70
2021/03/27 03:50:11;;;;;;;10.23;5.43;;;9.30;99.70;;;;;;5051585;28;20885;-71
2021/03/27 03:52:50;;;;;;;9.13;5.50;;;9.30;99.70;;;;;;5051329;28;20460;-71
2021/03/27 03:55:33;;;;;;;7.57;4.73;;;9.40;99.70;;;;;;5050786;28;20452;-71
2021/03/27 03:58:15;;;;;;;9.20;4.90;;;9.40;99.70;;;;;;5051091;28;20859;-70
2021/03/27 04:00:47;;;;;;;9.90;5.87;;;9.40;99.70;;;;;;5051155;28;20484;-71
2021/03/27 04:03:21;;;;;;;10.50;5.40;;;9.30;99.70;;;;;;5051255;28;21003;-71
2021/03/27 04:05:57;;;;;;;7.10;3.40;;;9.10;99.70;;;;;;5050594;28;20502;-70
2021/03/27 04:08:30;;;;;;;4.07;2.40;;;8.90;99.70;;;;;;5050752;28;20455;-71
2021/03/27 04:11:00;;;;;;;3.30;2.23;;;8.80;99.70;;;;;;5051055;28;20443;-70
2021/03/27 04:13:31;;;;;;;4.30;2.23;;;8.60;99.70;;;;;;5050923;28;20478;-72
2021/03/27 04:16:02;;;;;;;2.43;1.83;;;8.50;99.70;;;;;;5050420;28;20920;-71
2021/03/27 04:18:34;;;;;;;3.27;2.30;;;8.50;99.70;;;;;;5050618;28;20440;-71
2021/03/27 04:21:07;;;;;;;3.30;2.00;;;8.40;99.70;;;;;;5048904;28;20480;-71
2021/03/27 04:23:43;;;;;;;2.43;1.80;;;8.40;99.70;;;;;;5050638;28;20468;-70
2021/03/27 04:26:27;;;;;;;2.10;1.70;;;8.30;99.70;;;;;;5050478;28;20450;-70
2021/03/27 04:29:13;;;;;;;2.47;1.70;;;8.40;99.70;;;;;;5050691;28;20444;-70
2021/03/27 04:31:45;;;;;;;2.50;1.60;;;8.40;99.70;;;;;;5051179;28;20455;-70
2021/03/27 04:34:14;;;;;;;2.30;1.60;;;8.20;99.70;;;;;;5051811;28;20468;-71
2021/03/27 04:36:47;;;;;;;2.27;1.70;;;8.20;99.70;;;;;;5051129;28;20446;-72
2021/03/27 04:39:26;;;;;;;1.50;1.40;;;8.10;99.70;;;;;;5050727;28;20479;-71
2021/03/27 04:42:01;;;;;;;2.47;1.70;;;8.20;99.70;;;;;;5050555;28;20457;-70
2021/03/27 04:44:36;;;;;;;2.30;1.47;;;8.20;99.70;;;;;;5050414;28;20470;-71
2021/03/27 04:47:13;;;;;;;2.40;1.63;;;8.00;99.70;;;;;;5049478;28;20876;-69
2021/03/27 04:49:44;;;;;;;1.80;1.50;;;8.00;99.70;;;;;;5050339;28;20443;-70
2021/03/27 04:52:14;;;;;;;1.97;1.50;;;7.90;99.70;;;;;;5050273;28;20452;-71
2021/03/27 04:55:01;;;;;;;2.63;1.50;;;7.90;99.70;;;;;;5050309;28;20517;-70
2021/03/27 04:57:35;;;;;;;2.30;1.60;;;7.80;99.70;;;;;;5049790;28;20820;-71
2021/03/27 05:00:44;;;;;;;2.27;1.47;;;7.90;99.70;;;;;;5050221;28;20553;-70
2021/03/27 05:03:17;;;;;;;3.03;1.60;;;7.90;99.70;;;;;;4969323;28;20463;-70
2021/03/27 05:05:52;;;;;;;2.43;1.60;;;7.90;99.70;;;;;;5040945;28;20463;-69
2021/03/27 05:08:27;;;;;;;1.70;1.40;;;7.80;99.70;;;;;;5049927;28;20446;-70
2021/03/27 05:11:00;;;;;;;2.00;1.40;;;7.90;99.70;;;;;;5050351;28;20443;-70
2021/03/27 05:13:37;;;;;;;2.20;1.60;;;7.90;99.70;;;;;;5050363;28;20865;-70
2021/03/27 05:16:11;;;;;;;2.00;1.50;;;7.80;99.70;;;;;;5049743;28;20443;-69
2021/03/27 05:18:47;;;;;;;3.50;1.50;;;7.90;99.70;;;;;;5049820;28;20490;-72
2021/03/27 05:21:43;;;;;;;1.70;1.53;;;7.50;99.70;;;;;;5048156;28;20479;-69
2021/03/27 05:24:21;;;;;;;2.00;1.50;;;7.60;99.70;;;;;;5050123;28;20844;-72
2021/03/27 05:26:57;;;;;;;1.70;1.40;;;7.60;99.70;;;;;;5049308;28;20478;-71
2021/03/27 05:29:51;;;;;;;1.67;1.30;;;7.50;99.70;;;;;;5049839;28;20862;-71
2021/03/27 05:32:45;;;;;;;1.77;1.40;;;7.50;99.70;;;;;;5049700;28;20455;-70
2021/03/27 05:35:25;;;;;;;3.27;1.70;;;7.40;99.70;;;;;;5049296;28;20808;-71
2021/03/27 05:38:03;;;;;;;1.63;1.50;;;7.50;99.70;;;;;;5049281;28;20443;-70
2021/03/27 05:40:49;;;;;;;2.83;1.40;;;7.50;99.70;;;;;;5049553;28;21246;-71
2021/03/27 05:43:47;;;;;;;2.97;1.50;;;7.50;99.70;;;;;;5049524;28;20467;-71
2021/03/27 05:46:56;;;;;;;1.73;1.30;;;7.40;99.70;;;;;;5048982;28;20953;-71
2021/03/27 05:49:55;;;;;;;1.57;1.30;;;7.70;99.70;;;;;;5049543;28;20444;-71
2021/03/27 05:52:30;;;;;;;2.10;1.50;;;7.60;99.70;;;;;;5049365;28;20454;-71
2021/03/27 05:55:32;;;;;;;2.47;1.57;;;7.70;99.70;;;;;;5048913;28;20475;-70
2021/03/27 05:58:29;;;;;;;2.37;1.40;;;7.70;99.70;;;;;;5049059;28;20451;-71
2021/03/27 06:01:02;;;;;;;2.30;1.50;;;7.50;99.70;;;;;;5048970;28;20479;-71
2021/03/27 06:03:48;;;;;;;2.63;1.60;;;7.60;99.70;;;;;;5049331;28;20471;-71
2021/03/27 06:06:43;;;;;;;2.53;1.60;;;7.60;99.70;;;;;;5048943;28;20451;-71
2021/03/27 06:09:38;;;;;;;2.23;1.57;;;7.60;99.70;;;;;;5049358;28;20786;-71
2021/03/27 06:12:30;;;;;;;2.40;1.77;;;7.50;99.70;;;;;;5032144;28;20448;-72
2021/03/27 06:15:16;;;;;;;1.50;1.30;;;7.60;99.70;;;;;;5048468;28;20996;-71
2021/03/27 06:18:14;;;;;;;1.80;1.30;;;7.50;99.70;;;;;;5048722;28;20447;-70
2021/03/27 06:21:04;;;;;;;1.43;1.30;;;7.60;99.70;;;;;;5049087;28;20880;-71
2021/03/27 06:23:51;;;;;;;2.00;1.40;;;7.70;99.70;;;;;;5037672;28;20495;-71
2021/03/27 06:26:46;;;;;;;1.80;1.40;;;7.50;99.70;;;;;;5048623;28;20444;-71
2021/03/27 06:30:02;;;;;;;3.90;1.50;;;7.50;99.70;;;;;;5049213;28;20448;-71
2021/03/27 06:32:52;;;;;;;2.07;1.40;;;7.50;99.70;;;;;;5048952;28;20447;-70
2021/03/27 06:35:35;;;;;;;1.80;1.30;;;7.50;99.70;;;;;;5048424;28;20448;-72
2021/03/27 06:38:34;;;;;;;2.03;1.30;;;7.50;99.70;;;;;;5048665;28;20444;-71
2021/03/27 06:41:09;;;;;;;2.67;1.47;;;7.30;99.70;;;;;;5004919;28;21019;-72
2021/03/27 06:43:59;;;;;;;1.70;1.30;;;7.50;99.70;;;;;;5048854;28;20984;-72
2021/03/27 06:46:54;;;;;;;2.30;1.50;;;7.40;99.70;;;;;;5048409;28;20447;-71
2021/03/27 06:49:58;;;;;;;2.00;1.33;;;7.40;99.70;;;;;;5048569;28;20443;-72
2021/03/27 06:52:47;;;;;;;4.03;1.30;;;8.00;99.70;;;;;;5048661;28;20463;-70
2021/03/27 06:55:40;;;;;;;1.90;1.37;;;8.10;99.70;;;;;;5048457;28;20432;-72
2021/03/27 06:58:38;;;;;;;3.70;1.33;;;8.80;99.70;;;;;;5048586;28;20951;-71
2021/03/27 07:01:37;;;;;;;2.00;1.43;;;9.00;99.70;;;;;;5048659;28;20557;-71
2021/03/27 07:04:39;;;;;;;2.00;1.40;;;8.70;99.70;;;;;;5048766;28;20460;-70
2021/03/27 07:07:28;;;;;;;2.07;1.40;;;8.90;99.70;;;;;;5047911;28;20443;-71
2021/03/27 07:10:28;;;;;;;2.10;1.73;;;8.90;99.70;;;;;;5048765;28;20455;-70
2021/03/27 07:13:35;;;;;;;1.63;1.50;;;8.40;99.70;;;;;;5050580;28;20803;-71
2021/03/27 07:16:30;;;;;;;6.73;2.03;;;7.90;99.70;;;;;;5029130;28;20477;-71
2021/03/27 07:19:18;;;;;;;6.10;2.90;;;7.90;99.70;;;;;;5051839;28;20459;-70
2021/03/27 07:22:03;;;;;;;2.97;1.77;;;7.90;99.70;;;;;;5050111;28;20436;-70
2021/03/27 07:24:51;;;;;;;3.40;1.97;;;7.70;99.70;;;;;;5117441;22;20588;-68
2021/03/27 07:27:47;;;;;;;2.43;1.47;;;7.90;99.70;;;;;;5042461;28;20792;-68
2021/03/27 07:30:34;;;;;;;2.33;1.60;;;9.50;99.70;;;;;;5018039;28;20442;-69
2021/03/27 07:33:27;;;;;;;2.20;1.47;;;9.90;99.60;;;;;;5072089;28;20439;-68
2021/03/27 07:36:35;;;;;;;3.50;1.70;;;10.40;97.10;;;;;;5051608;28;20817;-68
2021/03/27 07:39:28;;;;;;;1.70;1.30;;;10.40;94.20;;;;;;5051522;28;20451;-68
2021/03/27 07:42:25;;;;;;;3.60;1.60;;;11.10;93.60;;;;;;5051927;28;20509;-68
2021/03/27 07:45:03;;;;;;;1.70;1.40;;;10.10;93.20;;;;;;5051821;28;20462;-68
2021/03/27 07:47:48;;;;;;;2.50;1.50;;;9.90;95.30;;;;;;5051490;28;20462;-68
2021/03/27 07:50:47;;;;;;;3.40;1.60;;;10.10;94.40;;;;;;5051707;28;20450;-69
2021/03/27 07:53:28;;;;;;;3.93;1.60;;;9.70;94.40;;;;;;5051710;28;20470;-68
2021/03/27 07:56:35;;;;;;;2.57;1.50;;;9.20;95.80;;;;;;5051175;28;20436;-68
2021/03/27 07:59:35;;;;;;;2.23;1.53;;;9.40;96.80;;;;;;5048699;28;20451;-68
2021/03/27 08:02:39;;;;;;;4.03;2.20;;;9.50;94.80;;;;;;5051551;28;20466;-68
2021/03/27 08:05:46;;;;;;;2.63;1.47;;;9.70;94.50;;;;;;5050860;28;20991;-67
2021/03/27 08:09:10;;;;;;;3.50;1.50;;;9.60;95.00;;;;;;5051199;28;20447;-68
2021/03/27 08:12:12;;;;;;;4.17;1.40;;;10.10;94.00;;;;;;5051458;28;20803;-68
2021/03/27 08:15:08;;;;;;;3.13;1.40;;;10.70;92.20;;;;;;5051074;28;21026;-68
2021/03/27 08:17:42;;;;;;;3.70;1.70;;;10.50;92.60;;;;;;5051064;28;20819;-68
2021/03/27 08:20:32;;;;;;;1.90;1.40;;;10.20;94.20;;;;;;5051180;28;20486;-69
2021/03/27 08:23:19;;;;;;;1.50;1.30;;;10.60;92.90;;;;;;5048713;28;20448;-67
2021/03/27 08:26:04;;;;;;;2.63;1.40;;;9.90;93.30;;;;;;5050481;28;20442;-68
2021/03/27 08:28:58;;;;;;;3.60;1.60;;;10.40;94.00;;;;;;5050782;28;20534;-68
2021/03/27 08:31:45;;;;;;;3.63;1.80;;;10.50;94.80;;;;;;5051003;28;20432;-68
2021/03/27 08:34:48;;;;;;;2.37;1.60;;;10.70;92.50;;;;;;5039899;28;20471;-68
2021/03/27 08:37:39;;;;;;;2.70;1.50;;;10.30;94.50;;;;;;5029887;28;20451;-68
2021/03/27 08:40:45;;;;;;;1.60;1.50;;;10.30;92.40;;;;;;5029146;28;20473;-68
2021/03/27 08:43:43;;;;;;;3.40;1.63;;;10.80;92.40;;;;;;5030446;28;20813;-68
2021/03/27 08:46:43;;;;;;;2.30;1.40;;;10.90;91.00;;;;;;5024519;28;20510;-68
2021/03/27 08:49:39;;;;;;;2.90;1.40;;;11.50;89.90;;;;;;5050047;28;20436;-68
2021/03/27 08:52:26;;;;;;;2.40;1.40;;;11.60;86.70;;;;;;5041438;28;20829;-68
2021/03/27 08:55:15;;;;;;;2.93;1.30;;;11.50;87.40;;;;;;5036502;28;20562;-67
2021/03/27 08:58:19;;;;;;;2.60;1.33;;;11.20;85.00;;;;;;5039205;28;21001;-68
2021/03/27 09:01:19;;;;;;;1.93;1.30;;;11.80;82.90;;;;;;5037286;28;20858;-68
2021/03/27 09:04:23;;;;;;;2.00;1.40;;;11.70;84.40;;;;;;5039623;28;20471;-68
2021/03/27 09:07:32;;;;;;;3.03;1.50;;;12.40;83.50;;;;;;5041555;28;20447;-69
2021/03/27 09:10:17;;;;;;;4.03;1.43;;;12.50;81.90;;;;;;5003752;28;20461;-68
2021/03/27 09:13:20;;;;;;;2.10;1.50;;;11.80;83.60;;;;;;5035814;28;20510;-67
2021/03/27 09:16:29;;;;;;;2.10;1.33;;;12.30;83.40;;;;;;5022493;28;20475;-68
2021/03/27 09:19:26;;;;;;;2.07;1.33;;;11.90;82.00;;;;;;5041257;28;20459;-68
2021/03/27 09:22:38;;;;;;;1.93;1.37;;;11.80;81.20;;;;;;5037339;28;20464;-69
2021/03/27 09:25:16;;;;;;;2.40;1.40;;;11.30;81.90;;;;;;5030575;28;20492;-68
2021/03/27 09:27:59;;;;;;;2.70;1.40;;;12.00;82.60;;;;;;5040805;28;20865;-68
2021/03/27 09:30:33;;;;;;;1.73;1.37;;;12.00;82.40;;;;;;5036978;28;20796;-69
2021/03/27 09:33:08;;;;;;;3.10;1.23;;;12.90;80.60;;;;;;5042342;28;20452;-69
2021/03/27 09:36:07;;;;;;;2.50;1.57;;;12.70;80.90;;;;;;5028158;28;20464;-69
2021/03/27 09:38:42;;;;;;;4.33;1.60;;;13.10;79.30;;;;;;5012397;28;20470;-68
2021/03/27 09:41:25;;;;;;;4.10;1.40;;;13.00;77.70;;;;;;5036741;28;20993;-69
2021/03/27 09:44:08;;;;;;;1.90;1.30;;;12.50;78.90;;;;;;5043027;28;20463;-69
2021/03/27 09:46:46;;;;;;;2.40;1.37;;;13.70;76.80;;;;;;5047662;28;20469;-68
2021/03/27 09:49:29;;;;;;;2.20;1.30;;;12.90;74.20;;;;;;5045105;28;20518;-69
2021/03/27 09:52:31;;;;;;;3.20;1.33;;;14.00;74.90;;;;;;5028102;28;20452;-69
2021/03/27 09:55:09;;;;;;;3.80;1.27;;;13.60;75.80;;;;;;5039608;28;20850;-69
2021/03/27 09:57:47;;;;;;;2.37;1.33;;;14.20;74.20;;;;;;5034605;28;20472;-67
2021/03/27 10:00:17;;;;;;;2.17;1.20;;;13.40;74.30;;;;;;5037523;28;20479;-68
2021/03/27 10:02:56;;;;;;;2.70;1.30;;;14.90;72.30;;;;;;5027678;28;20452;-69
2021/03/27 10:05:40;;;;;;;1.90;1.33;;;13.50;73.70;;;;;;5029240;28;20469;-69
2021/03/27 10:08:18;;;;;;;3.03;1.50;;;11.90;75.20;;;;;;5038996;28;20940;-69
2021/03/27 10:10:57;;;;;;;2.43;1.53;;;12.30;76.60;;;;;;5043934;28;20447;-69
2021/03/27 10:13:48;;;;;;;2.83;1.47;;;11.90;77.40;;;;;;5048446;28;20462;-68
2021/03/27 10:16:19;;;;;;;2.67;1.47;;;12.00;77.60;;;;;;5045707;28;20458;-69
2021/03/27 10:18:55;;;;;;;2.67;1.37;;;11.60;78.20;;;;;;5048090;28;20475;-68
2021/03/27 10:21:33;;;;;;;3.10;1.50;;;11.40;80.30;;;;;;5025761;28;20491;-69
2021/03/27 10:24:09;;;;;;;2.13;1.30;;;11.20;78.70;;;;;;5028913;28;20524;-69
2021/03/27 10:26:43;;;;;;;2.97;1.40;;;11.60;79.70;;;;;;5039514;28;20459;-68
2021/03/27 10:29:35;;;;;;;2.73;1.63;;;12.00;79.50;;;;;;5043686;28;20505;-69
2021/03/27 10:32:22;;;;;;;3.70;1.50;;;11.80;79.00;;;;;;5047819;28;20455;-69
2021/03/27 10:34:53;;;;;;;2.07;1.40;;;11.60;78.80;;;;;;5041370;28;20473;-69
2021/03/27 10:37:28;;;;;;;1.80;1.43;;;12.00;81.00;;;;;;5028049;28;20934;-69
2021/03/27 10:40:03;;;;;;;4.20;1.50;;;11.60;79.10;;;;;;5033856;28;20472;-69
2021/03/27 10:42:47;;;;;;;2.37;1.23;;;11.60;79.90;;;;;;5047987;28;20550;-69
2021/03/27 10:45:34;;;;;;;3.20;1.50;;;11.20;79.60;;;;;;5027045;28;20906;-69
2021/03/27 10:48:27;;;;;;;3.87;1.40;;;10.90;78.70;;;;;;5034524;28;20452;-69
2021/03/27 10:51:22;;;;;;;3.53;1.53;;;11.10;79.40;;;;;;5051445;28;20972;-69
2021/03/27 10:54:03;;;;;;;2.30;1.40;;;10.70;81.40;;;;;;5050391;28;20486;-68
2021/03/27 10:57:00;;;;;;;2.20;1.40;;;10.30;78.80;;;;;;5050858;28;20443;-68
2021/03/27 10:59:35;;;;;;;2.70;1.30;;;10.20;79.20;;;;;;5050119;28;20443;-68
2021/03/27 11:02:38;;;;;;;1.90;1.30;;;10.50;80.60;;;;;;5051946;28;20435;-69
2021/03/27 11:05:36;;;;;;;2.40;1.30;;;10.20;80.10;;;;;;5050552;28;21037;-68
2021/03/27 11:08:44;;;;;;;2.43;1.27;;;10.10;78.90;;;;;;5048247;28;20506;-68
2021/03/27 11:11:33;;;;;;;2.20;1.50;;;10.00;79.00;;;;;;5031964;28;20877;-69
2021/03/27 11:14:39;;;;;;;2.47;1.40;;;9.70;80.50;;;;;;5041073;28;20463;-68
2021/03/27 11:17:36;;;;;;;4.73;1.37;;;9.80;79.90;;;;;;5035121;28;20914;-68
2021/03/27 11:20:23;;;;;;;4.50;1.30;;;10.00;79.00;;;;;;5032602;28;20652;-69
2021/03/27 11:23:32;;;;;;;3.73;1.50;;;10.10;81.10;;;;;;5046279;28;20447;-69
2021/03/27 11:26:36;;;;;;;1.87;1.30;;;10.10;80.10;;;;;;5036029;28;20452;-68
2021/03/27 11:29:11;;;;;;;2.00;1.40;;;10.10;78.30;;;;;;5032184;28;20498;-68
2021/03/27 11:31:44;;;;;;;2.33;1.30;;;10.10;80.00;;;;;;5031232;28;20436;-68
2021/03/27 11:34:26;;;;;;;1.50;1.30;;;9.80;79.00;;;;;;5045252;28;20789;-69
2021/03/27 11:37:02;;;;;;;1.80;1.30;;;9.90;79.10;;;;;;5050063;28;20589;-69
2021/03/27 11:39:40;;;;;;;2.43;1.30;;;10.30;80.70;;;;;;5031387;28;20824;-68
2021/03/27 11:42:22;;;;;;;4.10;1.50;;;10.50;79.60;;;;;;5032192;28;20493;-68
2021/03/27 11:45:00;;;;;;;2.97;1.60;;;10.20;79.20;;;;;;5030916;28;20449;-69
2021/03/27 11:47:34;;;;;;;2.53;1.30;;;10.10;80.20;;;;;;5034882;28;20497;-68
2021/03/27 11:50:22;;;;;;;3.73;1.40;;;10.30;79.40;;;;;;5050352;28;20440;-68
2021/03/27 11:52:57;;;;;;;3.10;1.57;;;10.30;79.30;;;;;;5025699;28;20444;-68
2021/03/27 11:55:27;;;;;;;2.57;1.40;;;10.30;77.90;;;;;;5049812;28;21005;-69
2021/03/27 11:58:02;;;;;;;3.30;1.40;;;10.50;80.10;;;;;;5040950;28;20511;-69
2021/03/27 12:00:47;;;;;;;2.10;1.30;;;10.80;80.20;;;;;;5030477;28;20484;-68
2021/03/27 12:03:22;;;;;;;4.40;1.50;;;10.80;80.00;;;;;;5031896;28;20440;-68
2021/03/27 12:05:51;;;;;;;4.23;1.50;;;10.90;77.00;;;;;;5030011;28;20448;-68
2021/03/27 12:08:28;;;;;;;3.07;1.70;;;11.00;77.50;;;;;;5031499;28;20453;-69
2021/03/27 12:11:07;;;;;;;2.90;1.50;;;11.00;77.20;;;;;;5030646;28;20440;-68
2021/03/27 12:13:44;;;;;;;3.70;1.53;;;10.70;77.40;;;;;;5033169;28;20480;-68
2021/03/27 12:16:20;;;;;;;2.53;1.47;;;10.50;79.00;;;;;;5037281;28;20961;-69
2021/03/27 12:19:08;;;;;;;4.10;1.50;;;10.60;79.00;;;;;;5036487;28;20440;-69
2021/03/27 12:21:39;;;;;;;2.70;1.40;;;10.30;79.70;;;;;;5039418;28;21374;-69
2021/03/27 12:24:14;;;;;;;2.63;1.27;;;10.40;79.40;;;;;;5043915;28;20479;-69
2021/03/27 12:26:52;;;;;;;3.03;1.60;;;10.40;80.40;;;;;;5039741;28;20498;-69
2021/03/27 12:29:27;;;;;;;2.90;1.60;;;10.60;80.20;;;;;;5044681;28;20451;-69
2021/03/27 12:32:34;;;;;;;4.67;1.87;;;10.90;79.90;;;;;;5042539;28;20440;-69
2021/03/27 12:35:05;;;;;;;3.50;1.60;;;11.20;80.10;;;;;;5040404;28;21036;-68
2021/03/27 12:37:38;;;;;;;5.50;2.10;;;11.10;78.60;;;;;;5030045;28;20506;-69
2021/03/27 12:40:17;;;;;;;3.63;1.70;;;11.00;78.20;;;;;;5035281;28;20492;-68
2021/03/27 12:42:47;;;;;;;3.90;1.60;;;10.90;78.80;;;;;;5042484;28;20449;-68
2021/03/27 12:45:19;;;;;;;2.90;1.57;;;10.70;78.00;;;;;;5034895;28;21004;-68
2021/03/27 12:48:01;;;;;;;3.53;1.90;;;10.70;78.40;;;;;;5030063;28;20452;-68
2021/03/27 12:50:40;;;;;;;7.80;1.90;;;10.50;79.20;;;;;;5039543;28;20443;-69
2021/03/27 12:53:24;;;;;;;4.93;1.97;;;10.50;78.70;;;;;;5041388;28;20701;-69
2021/03/27 12:56:19;;;;;;;6.60;2.40;;;10.60;80.50;;;;;;5040150;28;20448;-68
2021/03/27 12:58:59;;;;;;;3.10;1.70;;;10.70;80.80;;;;;;5045606;28;20447;-69
2021/03/27 13:02:01;;;;;;;2.50;1.70;;;10.70;79.40;;;;;;5039340;28;20479;-68
2021/03/27 13:05:02;;;;;;;2.93;1.80;;;10.70;79.80;;;;;;5036961;28;20460;-69
2021/03/27 13:07:36;;;;;;;2.93;1.80;;;10.60;79.20;;;;;;5031979;28;20831;-69
2021/03/27 13:10:44;;;;;;;4.73;2.00;;;10.70;80.30;;;;;;5045546;28;20577;-69
2021/03/27 13:13:38;;;;;;;4.20;2.10;;;10.70;81.10;;;;;;5038885;28;20452;-68
2021/03/27 13:16:15;;;;;;;3.90;2.17;;;10.80;79.50;;;;;;5036616;28;20444;-69
2021/03/27 13:19:05;;;;;;;5.20;2.20;;;11.00;79.80;;;;;;5047429;28;20444;-69
2021/03/27 13:21:52;;;;;;;5.07;2.10;;;11.20;78.70;;;;;;5032054;28;20495;-68
2021/03/27 13:24:23;;;;;;;3.73;1.63;;;11.30;80.40;;;;;;5029520;28;20533;-69
2021/03/27 13:27:00;;;;;;;3.00;1.80;;;11.30;78.60;;;;;;5042070;28;20447;-68
2021/03/27 13:29:34;;;;;;;3.73;2.10;;;11.30;76.90;;;;;;5049098;28;20457;-68
2021/03/27 13:32:15;;;;;;;3.83;2.50;;;11.10;78.40;;;;;;5040176;28;20436;-69
2021/03/27 13:34:46;;;;;;;3.20;1.90;;;11.10;79.00;;;;;;5048559;28;20557;-68
2021/03/27 13:37:17;;;;;;;2.80;1.83;;;11.20;77.30;;;;;;5028297;28;20873;-68
2021/03/27 13:39:48;;;;;;;4.17;1.50;;;11.20;77.60;;;;;;5028948;28;20452;-68
2021/03/27 13:42:43;;;;;;;3.20;1.67;;;11.30;76.90;;;;;;5028907;28;20440;-69
2021/03/27 13:45:30;;;;;;;4.00;2.30;;;11.10;76.90;;;;;;5029644;28;20514;-69
2021/03/27 13:48:07;;;;;;;4.67;2.20;;;11.00;78.70;;;;;;5025466;28;20465;-68
2021/03/27 13:50:44;;;;;;;6.17;2.23;;;11.10;77.90;;;;;;5033253;28;20443;-69
2021/03/27 13:53:36;;;;;;;3.93;1.87;;;11.20;77.30;;;;;;5048919;28;20524;-69
2021/03/27 13:56:24;;;;;;;3.13;2.00;;;11.10;78.10;;;;;;5037838;28;20966;-67
2021/03/27 13:59:01;;;;;;;3.40;1.87;;;11.10;77.90;;;;;;5041093;28;20450;-68
2021/03/27 14:01:33;;;;;;;3.23;1.70;;;11.20;77.30;;;;;;5040921;28;21001;-69
2021/03/27 14:04:15;;;;;;;5.00;1.90;;;11.10;77.50;;;;;;5041208;28;20464;-69
2021/03/27 14:06:45;;;;;;;4.87;2.20;;;11.20;76.50;;;;;;5048009;28;20458;-68